sensor_id;sensor_type;location;lat;lon;timestamp;P1;durP1;ratioP1;P2;durP2;ratioP2
66587;SDS011;53446;50.076;8.198;2022-08-03T00:00:20;4.60;;;2.00;;
66587;SDS011;53446;50.076;8.198;2022-08-03T00:02:23;6.63;;;3.17;;
66587;SDS011;53446;50.076;8.198;2022-08-03T00:04:23;5.53;;;2.70;;
66587;SDS011;53446;50.076;8.198;2022-08-03T00:06:23;5.30;;;2.50;;
66587;SDS011;53446;50.076;8.198;2022-08-03T00:08:24;5.90;;;2.70;;
66587;SDS011;53446;50.076;8.198;2022-08-03T00:10:24;5.22;;;2.35;;
66587;SDS011;53446;50.076;8.198;2022-08-03T00:12:25;7.07;;;2.40;;
66587;SDS011;53446;50.076;8.198;2022-08-03T00:14:26;5.00;;;2.28;;
66587;SDS011;53446;50.076;8.198;2022-08-03T00:16:26;4.63;;;2.13;;
66587;SDS011;53446;50.076;8.198;2022-08-03T00:18:26;5.40;;;2.40;;
66587;SDS011;53446;50.076;8.198;2022-08-03T00:20:27;5.47;;;2.10;;
66587;SDS011;53446;50.076;8.198;2022-08-03T00:22:27;4.57;;;2.03;;
66587;SDS011;53446;50.076;8.198;2022-08-03T00:24:27;7.43;;;2.00;;
66587;SDS011;53446;50.076;8.198;2022-08-03T00:26:27;5.10;;;2.10;;
66587;SDS011;53446;50.076;8.198;2022-08-03T00:28:28;4.53;;;2.10;;
66587;SDS011;53446;50.076;8.198;2022-08-03T00:30:28;4.47;;;2.30;;
66587;SDS011;53446;50.076;8.198;2022-08-03T00:32:29;5.45;;;2.10;;
66587;SDS011;53446;50.076;8.198;2022-08-03T00:34:29;4.13;;;2.10;;
66587;SDS011;53446;50.076;8.198;2022-08-03T00:36:30;5.88;;;2.00;;
66587;SDS011;53446;50.076;8.198;2022-08-03T00:38:30;4.23;;;2.23;;
66587;SDS011;53446;50.076;8.198;2022-08-03T00:40:31;6.07;;;2.20;;
66587;SDS011;53446;50.076;8.198;2022-08-03T00:42:31;4.70;;;1.85;;
66587;SDS011;53446;50.076;8.198;2022-08-03T00:44:37;4.60;;;2.10;;
66587;SDS011;53446;50.076;8.198;2022-08-03T00:46:38;4.05;;;1.85;;
66587;SDS011;53446;50.076;8.198;2022-08-03T00:48:39;6.63;;;1.90;;
66587;SDS011;53446;50.076;8.198;2022-08-03T00:50:40;4.20;;;2.00;;
66587;SDS011;53446;50.076;8.198;2022-08-03T00:52:41;5.22;;;1.90;;
66587;SDS011;53446;50.076;8.198;2022-08-03T00:54:42;4.67;;;2.00;;
66587;SDS011;53446;50.076;8.198;2022-08-03T00:56:42;5.63;;;2.03;;
66587;SDS011;53446;50.076;8.198;2022-08-03T00:58:43;4.67;;;2.00;;
66587;SDS011;53446;50.076;8.198;2022-08-03T01:00:44;4.70;;;2.13;;
66587;SDS011;53446;50.076;8.198;2022-08-03T01:02:44;4.77;;;2.10;;
66587;SDS011;53446;50.076;8.198;2022-08-03T01:04:45;4.05;;;1.95;;
66587;SDS011;53446;50.076;8.198;2022-08-03T01:06:49;5.37;;;2.03;;
66587;SDS011;53446;50.076;8.198;2022-08-03T01:08:57;5.75;;;2.22;;
66587;SDS011;53446;50.076;8.198;2022-08-03T01:11:05;4.78;;;2.22;;
66587;SDS011;53446;50.076;8.198;2022-08-03T01:13:33;8.40;;;2.00;;
66587;SDS011;53446;50.076;8.198;2022-08-03T01:15:55;5.13;;;2.13;;
66587;SDS011;53446;50.076;8.198;2022-08-03T01:20:21;4.43;;;2.20;;
66587;SDS011;53446;50.076;8.198;2022-08-03T01:25:09;4.63;;;1.90;;
66587;SDS011;53446;50.076;8.198;2022-08-03T01:27:25;4.55;;;2.17;;
66587;SDS011;53446;50.076;8.198;2022-08-03T01:32:02;4.50;;;2.15;;
66587;SDS011;53446;50.076;8.198;2022-08-03T01:34:08;5.15;;;2.40;;
66587;SDS011;53446;50.076;8.198;2022-08-03T01:36:15;5.22;;;2.10;;
66587;SDS011;53446;50.076;8.198;2022-08-03T01:38:21;4.35;;;2.20;;
66587;SDS011;53446;50.076;8.198;2022-08-03T01:40:24;4.97;;;2.10;;
66587;SDS011;53446;50.076;8.198;2022-08-03T01:42:26;4.65;;;2.10;;
66587;SDS011;53446;50.076;8.198;2022-08-03T01:44:29;3.92;;;2.08;;
66587;SDS011;53446;50.076;8.198;2022-08-03T01:46:30;5.28;;;2.25;;
66587;SDS011;53446;50.076;8.198;2022-08-03T01:48:30;4.78;;;2.33;;
66587;SDS011;53446;50.076;8.198;2022-08-03T01:50:31;5.27;;;2.00;;
66587;SDS011;53446;50.076;8.198;2022-08-03T01:52:33;4.03;;;1.95;;
66587;SDS011;53446;50.076;8.198;2022-08-03T01:54:39;4.25;;;2.00;;
66587;SDS011;53446;50.076;8.198;2022-08-03T01:56:41;4.60;;;1.95;;
66587;SDS011;53446;50.076;8.198;2022-08-03T01:58:41;4.53;;;2.20;;
66587;SDS011;53446;50.076;8.198;2022-08-03T02:00:43;4.43;;;1.92;;
66587;SDS011;53446;50.076;8.198;2022-08-03T02:02:44;4.63;;;2.00;;
66587;SDS011;53446;50.076;8.198;2022-08-03T02:04:46;4.70;;;2.15;;
66587;SDS011;53446;50.076;8.198;2022-08-03T02:06:47;5.03;;;2.00;;
66587;SDS011;53446;50.076;8.198;2022-08-03T02:08:47;4.32;;;2.10;;
66587;SDS011;53446;50.076;8.198;2022-08-03T02:10:48;4.55;;;2.05;;
66587;SDS011;53446;50.076;8.198;2022-08-03T02:12:48;5.50;;;2.00;;
66587;SDS011;53446;50.076;8.198;2022-08-03T02:14:49;4.60;;;2.20;;
66587;SDS011;53446;50.076;8.198;2022-08-03T02:16:50;4.20;;;1.92;;
66587;SDS011;53446;50.076;8.198;2022-08-03T02:18:51;4.80;;;2.10;;
66587;SDS011;53446;50.076;8.198;2022-08-03T02:20:51;4.53;;;2.00;;
66587;SDS011;53446;50.076;8.198;2022-08-03T02:22:51;4.73;;;2.30;;
66587;SDS011;53446;50.076;8.198;2022-08-03T02:24:52;5.17;;;2.00;;
66587;SDS011;53446;50.076;8.198;2022-08-03T02:26:53;4.47;;;2.30;;
66587;SDS011;53446;50.076;8.198;2022-08-03T02:28:55;3.92;;;1.80;;
66587;SDS011;53446;50.076;8.198;2022-08-03T02:30:58;5.90;;;2.10;;
66587;SDS011;53446;50.076;8.198;2022-08-03T02:32:59;6.68;;;2.00;;
66587;SDS011;53446;50.076;8.198;2022-08-03T02:35:01;4.63;;;2.00;;
66587;SDS011;53446;50.076;8.198;2022-08-03T02:37:03;5.82;;;2.22;;
66587;SDS011;53446;50.076;8.198;2022-08-03T02:39:03;5.60;;;2.13;;
66587;SDS011;53446;50.076;8.198;2022-08-03T02:41:15;4.00;;;2.10;;
66587;SDS011;53446;50.076;8.198;2022-08-03T02:43:18;6.22;;;2.50;;
66587;SDS011;53446;50.076;8.198;2022-08-03T02:45:19;4.75;;;2.13;;
66587;SDS011;53446;50.076;8.198;2022-08-03T02:47:20;5.80;;;2.43;;
66587;SDS011;53446;50.076;8.198;2022-08-03T02:49:20;5.53;;;2.10;;
66587;SDS011;53446;50.076;8.198;2022-08-03T02:51:21;5.93;;;2.40;;
66587;SDS011;53446;50.076;8.198;2022-08-03T02:53:21;4.20;;;2.10;;
66587;SDS011;53446;50.076;8.198;2022-08-03T02:55:22;5.75;;;2.08;;
66587;SDS011;53446;50.076;8.198;2022-08-03T02:57:25;5.28;;;2.25;;
66587;SDS011;53446;50.076;8.198;2022-08-03T02:59:27;4.88;;;2.40;;
66587;SDS011;53446;50.076;8.198;2022-08-03T03:01:30;4.47;;;2.03;;
66587;SDS011;53446;50.076;8.198;2022-08-03T03:03:30;4.80;;;2.25;;
66587;SDS011;53446;50.076;8.198;2022-08-03T03:05:31;4.40;;;2.10;;
66587;SDS011;53446;50.076;8.198;2022-08-03T03:07:32;4.57;;;2.00;;
66587;SDS011;53446;50.076;8.198;2022-08-03T03:09:32;4.15;;;2.00;;
66587;SDS011;53446;50.076;8.198;2022-08-03T03:11:33;4.38;;;1.83;;
66587;SDS011;53446;50.076;8.198;2022-08-03T03:13:35;4.53;;;1.80;;
66587;SDS011;53446;50.076;8.198;2022-08-03T03:15:36;4.97;;;2.00;;
66587;SDS011;53446;50.076;8.198;2022-08-03T03:17:38;5.65;;;2.05;;
66587;SDS011;53446;50.076;8.198;2022-08-03T03:19:38;4.07;;;1.97;;
66587;SDS011;53446;50.076;8.198;2022-08-03T03:21:39;5.55;;;1.98;;
66587;SDS011;53446;50.076;8.198;2022-08-03T03:23:41;5.03;;;1.98;;
66587;SDS011;53446;50.076;8.198;2022-08-03T03:25:42;4.10;;;1.90;;
66587;SDS011;53446;50.076;8.198;2022-08-03T03:27:42;5.18;;;2.20;;
66587;SDS011;53446;50.076;8.198;2022-08-03T03:29:43;5.90;;;2.37;;
66587;SDS011;53446;50.076;8.198;2022-08-03T03:31:43;6.43;;;2.70;;
66587;SDS011;53446;50.076;8.198;2022-08-03T03:33:43;5.70;;;2.25;;
66587;SDS011;53446;50.076;8.198;2022-08-03T03:35:44;4.90;;;2.50;;
66587;SDS011;53446;50.076;8.198;2022-08-03T03:37:45;4.63;;;2.00;;
66587;SDS011;53446;50.076;8.198;2022-08-03T03:39:46;5.80;;;2.80;;
66587;SDS011;53446;50.076;8.198;2022-08-03T03:41:46;4.40;;;2.50;;
66587;SDS011;53446;50.076;8.198;2022-08-03T03:43:47;4.57;;;1.90;;
66587;SDS011;53446;50.076;8.198;2022-08-03T03:45:48;5.95;;;2.25;;
66587;SDS011;53446;50.076;8.198;2022-08-03T03:47:50;5.53;;;2.70;;
66587;SDS011;53446;50.076;8.198;2022-08-03T03:49:50;5.60;;;2.30;;
66587;SDS011;53446;50.076;8.198;2022-08-03T03:51:51;8.13;;;2.30;;
66587;SDS011;53446;50.076;8.198;2022-08-03T03:53:53;5.50;;;2.30;;
66587;SDS011;53446;50.076;8.198;2022-08-03T03:55:55;7.18;;;2.50;;
66587;SDS011;53446;50.076;8.198;2022-08-03T03:57:55;5.70;;;2.07;;
66587;SDS011;53446;50.076;8.198;2022-08-03T03:59:55;6.10;;;2.50;;
66587;SDS011;53446;50.076;8.198;2022-08-03T04:01:56;5.03;;;2.50;;
66587;SDS011;53446;50.076;8.198;2022-08-03T04:03:57;6.95;;;2.67;;
66587;SDS011;53446;50.076;8.198;2022-08-03T04:06:17;5.95;;;2.60;;
66587;SDS011;53446;50.076;8.198;2022-08-03T04:08:36;5.88;;;2.47;;
66587;SDS011;53446;50.076;8.198;2022-08-03T04:11:01;6.85;;;2.50;;
66587;SDS011;53446;50.076;8.198;2022-08-03T04:13:07;5.53;;;2.50;;
66587;SDS011;53446;50.076;8.198;2022-08-03T04:15:09;4.93;;;2.50;;
66587;SDS011;53446;50.076;8.198;2022-08-03T04:17:10;7.65;;;2.80;;
66587;SDS011;53446;50.076;8.198;2022-08-03T04:19:17;5.50;;;2.20;;
66587;SDS011;53446;50.076;8.198;2022-08-03T04:21:20;4.85;;;2.20;;
66587;SDS011;53446;50.076;8.198;2022-08-03T04:23:23;4.78;;;2.15;;
66587;SDS011;53446;50.076;8.198;2022-08-03T04:25:25;4.82;;;2.30;;
66587;SDS011;53446;50.076;8.198;2022-08-03T04:27:28;4.90;;;2.40;;
66587;SDS011;53446;50.076;8.198;2022-08-03T04:29:34;4.77;;;2.20;;
66587;SDS011;53446;50.076;8.198;2022-08-03T04:31:37;4.95;;;2.42;;
66587;SDS011;53446;50.076;8.198;2022-08-03T04:33:38;5.80;;;2.80;;
66587;SDS011;53446;50.076;8.198;2022-08-03T04:35:40;4.85;;;2.25;;
66587;SDS011;53446;50.076;8.198;2022-08-03T04:37:42;5.15;;;2.25;;
66587;SDS011;53446;50.076;8.198;2022-08-03T04:39:46;4.77;;;2.40;;
66587;SDS011;53446;50.076;8.198;2022-08-03T04:41:48;5.70;;;2.55;;
66587;SDS011;53446;50.076;8.198;2022-08-03T04:43:48;5.67;;;2.43;;
66587;SDS011;53446;50.076;8.198;2022-08-03T04:45:50;6.18;;;2.90;;
66587;SDS011;53446;50.076;8.198;2022-08-03T04:47:52;4.60;;;2.38;;
66587;SDS011;53446;50.076;8.198;2022-08-03T04:49:52;4.55;;;2.05;;
66587;SDS011;53446;50.076;8.198;2022-08-03T04:51:53;4.57;;;2.40;;
66587;SDS011;53446;50.076;8.198;2022-08-03T04:53:53;4.70;;;2.23;;
66587;SDS011;53446;50.076;8.198;2022-08-03T04:55:53;4.57;;;2.40;;
66587;SDS011;53446;50.076;8.198;2022-08-03T04:57:54;4.77;;;2.50;;
66587;SDS011;53446;50.076;8.198;2022-08-03T04:59:54;4.85;;;2.35;;
66587;SDS011;53446;50.076;8.198;2022-08-03T05:01:55;4.87;;;2.30;;
66587;SDS011;53446;50.076;8.198;2022-08-03T05:03:55;4.80;;;2.33;;
66587;SDS011;53446;50.076;8.198;2022-08-03T05:05:56;5.60;;;2.60;;
66587;SDS011;53446;50.076;8.198;2022-08-03T05:07:56;4.70;;;2.30;;
66587;SDS011;53446;50.076;8.198;2022-08-03T05:09:56;4.70;;;2.70;;
66587;SDS011;53446;50.076;8.198;2022-08-03T05:11:56;6.38;;;2.80;;
66587;SDS011;53446;50.076;8.198;2022-08-03T05:13:57;6.67;;;2.77;;
66587;SDS011;53446;50.076;8.198;2022-08-03T05:15:57;6.13;;;2.90;;
66587;SDS011;53446;50.076;8.198;2022-08-03T05:17:57;5.83;;;2.90;;
66587;SDS011;53446;50.076;8.198;2022-08-03T05:19:58;5.93;;;2.50;;
66587;SDS011;53446;50.076;8.198;2022-08-03T05:21:59;11.07;;;3.08;;
66587;SDS011;53446;50.076;8.198;2022-08-03T05:23:59;5.83;;;2.97;;
66587;SDS011;53446;50.076;8.198;2022-08-03T05:25:59;5.77;;;3.10;;
66587;SDS011;53446;50.076;8.198;2022-08-03T05:28:00;5.50;;;3.13;;
66587;SDS011;53446;50.076;8.198;2022-08-03T05:30:00;6.15;;;2.80;;
66587;SDS011;53446;50.076;8.198;2022-08-03T05:32:00;5.97;;;2.83;;
66587;SDS011;53446;50.076;8.198;2022-08-03T05:34:01;5.87;;;2.80;;
66587;SDS011;53446;50.076;8.198;2022-08-03T05:36:01;5.03;;;2.80;;
66587;SDS011;53446;50.076;8.198;2022-08-03T05:38:02;5.43;;;2.97;;
66587;SDS011;53446;50.076;8.198;2022-08-03T05:40:03;5.27;;;2.53;;
66587;SDS011;53446;50.076;8.198;2022-08-03T05:42:03;5.47;;;2.65;;
66587;SDS011;53446;50.076;8.198;2022-08-03T05:44:04;4.55;;;2.47;;
66587;SDS011;53446;50.076;8.198;2022-08-03T05:46:04;5.33;;;2.80;;
66587;SDS011;53446;50.076;8.198;2022-08-03T05:48:04;6.00;;;2.80;;
66587;SDS011;53446;50.076;8.198;2022-08-03T05:50:05;5.27;;;2.70;;
66587;SDS011;53446;50.076;8.198;2022-08-03T05:52:05;8.00;;;3.00;;
66587;SDS011;53446;50.076;8.198;2022-08-03T05:54:06;6.88;;;2.75;;
66587;SDS011;53446;50.076;8.198;2022-08-03T05:56:06;8.47;;;3.20;;
66587;SDS011;53446;50.076;8.198;2022-08-03T05:58:06;6.47;;;2.60;;
66587;SDS011;53446;50.076;8.198;2022-08-03T06:00:07;9.03;;;3.13;;
66587;SDS011;53446;50.076;8.198;2022-08-03T06:02:09;7.68;;;3.20;;
66587;SDS011;53446;50.076;8.198;2022-08-03T06:04:09;6.63;;;2.90;;
66587;SDS011;53446;50.076;8.198;2022-08-03T06:06:10;7.07;;;3.03;;
66587;SDS011;53446;50.076;8.198;2022-08-03T06:08:10;7.23;;;2.83;;
66587;SDS011;53446;50.076;8.198;2022-08-03T06:10:11;5.43;;;3.10;;
66587;SDS011;53446;50.076;8.198;2022-08-03T06:12:11;7.32;;;2.78;;
66587;SDS011;53446;50.076;8.198;2022-08-03T06:14:11;5.53;;;2.70;;
66587;SDS011;53446;50.076;8.198;2022-08-03T06:16:12;6.87;;;3.00;;
66587;SDS011;53446;50.076;8.198;2022-08-03T06:18:12;6.13;;;3.03;;
66587;SDS011;53446;50.076;8.198;2022-08-03T06:20:12;6.73;;;2.93;;
66587;SDS011;53446;50.076;8.198;2022-08-03T06:22:14;5.20;;;2.60;;
66587;SDS011;53446;50.076;8.198;2022-08-03T06:24:15;7.27;;;2.80;;
66587;SDS011;53446;50.076;8.198;2022-08-03T06:26:15;5.33;;;2.60;;
66587;SDS011;53446;50.076;8.198;2022-08-03T06:28:15;6.73;;;3.07;;
66587;SDS011;53446;50.076;8.198;2022-08-03T06:30:17;6.38;;;2.97;;
66587;SDS011;53446;50.076;8.198;2022-08-03T06:32:17;5.28;;;2.88;;
66587;SDS011;53446;50.076;8.198;2022-08-03T06:34:21;7.90;;;3.17;;
66587;SDS011;53446;50.076;8.198;2022-08-03T06:36:21;5.95;;;2.92;;
66587;SDS011;53446;50.076;8.198;2022-08-03T06:38:22;5.57;;;2.60;;
66587;SDS011;53446;50.076;8.198;2022-08-03T06:40:22;4.93;;;2.70;;
66587;SDS011;53446;50.076;8.198;2022-08-03T06:42:30;5.97;;;2.88;;
66587;SDS011;53446;50.076;8.198;2022-08-03T06:44:30;5.33;;;2.70;;
66587;SDS011;53446;50.076;8.198;2022-08-03T06:46:31;6.00;;;2.90;;
66587;SDS011;53446;50.076;8.198;2022-08-03T06:48:31;5.63;;;2.93;;
66587;SDS011;53446;50.076;8.198;2022-08-03T06:50:32;4.70;;;2.70;;
66587;SDS011;53446;50.076;8.198;2022-08-03T06:52:33;6.90;;;2.95;;
66587;SDS011;53446;50.076;8.198;2022-08-03T06:54:34;5.60;;;2.90;;
66587;SDS011;53446;50.076;8.198;2022-08-03T06:56:34;7.22;;;2.70;;
66587;SDS011;53446;50.076;8.198;2022-08-03T06:58:35;7.10;;;2.80;;
66587;SDS011;53446;50.076;8.198;2022-08-03T07:00:35;8.20;;;2.90;;
66587;SDS011;53446;50.076;8.198;2022-08-03T07:02:35;6.83;;;2.70;;
66587;SDS011;53446;50.076;8.198;2022-08-03T07:04:36;5.93;;;2.70;;
66587;SDS011;53446;50.076;8.198;2022-08-03T07:06:37;5.80;;;2.58;;
66587;SDS011;53446;50.076;8.198;2022-08-03T07:08:37;6.00;;;2.80;;
66587;SDS011;53446;50.076;8.198;2022-08-03T07:10:38;6.70;;;2.50;;
66587;SDS011;53446;50.076;8.198;2022-08-03T07:12:38;7.03;;;2.60;;
66587;SDS011;53446;50.076;8.198;2022-08-03T07:14:39;10.90;;;2.97;;
66587;SDS011;53446;50.076;8.198;2022-08-03T07:16:39;9.27;;;2.70;;
66587;SDS011;53446;50.076;8.198;2022-08-03T07:18:40;8.45;;;3.08;;
66587;SDS011;53446;50.076;8.198;2022-08-03T07:20:40;8.60;;;3.13;;
66587;SDS011;53446;50.076;8.198;2022-08-03T07:22:41;8.83;;;3.30;;
66587;SDS011;53446;50.076;8.198;2022-08-03T07:24:41;7.80;;;3.30;;
66587;SDS011;53446;50.076;8.198;2022-08-03T07:26:41;7.27;;;2.87;;
66587;SDS011;53446;50.076;8.198;2022-08-03T07:28:42;8.57;;;3.30;;
66587;SDS011;53446;50.076;8.198;2022-08-03T07:30:42;8.40;;;3.47;;
66587;SDS011;53446;50.076;8.198;2022-08-03T07:32:42;7.53;;;3.40;;
66587;SDS011;53446;50.076;8.198;2022-08-03T07:34:43;9.00;;;3.67;;
66587;SDS011;53446;50.076;8.198;2022-08-03T07:36:43;6.67;;;3.40;;
66587;SDS011;53446;50.076;8.198;2022-08-03T07:38:43;5.83;;;3.03;;
66587;SDS011;53446;50.076;8.198;2022-08-03T07:40:44;10.90;;;3.10;;
66587;SDS011;53446;50.076;8.198;2022-08-03T07:42:44;6.28;;;2.42;;
66587;SDS011;53446;50.076;8.198;2022-08-03T07:44:44;6.53;;;2.53;;
66587;SDS011;53446;50.076;8.198;2022-08-03T07:46:45;7.43;;;2.77;;
66587;SDS011;53446;50.076;8.198;2022-08-03T07:48:45;7.50;;;2.83;;
66587;SDS011;53446;50.076;8.198;2022-08-03T07:50:46;7.00;;;3.13;;
66587;SDS011;53446;50.076;8.198;2022-08-03T07:52:46;6.80;;;3.10;;
66587;SDS011;53446;50.076;8.198;2022-08-03T07:54:50;8.10;;;2.72;;
66587;SDS011;53446;50.076;8.198;2022-08-03T07:56:51;8.53;;;3.60;;
66587;SDS011;53446;50.076;8.198;2022-08-03T07:58:51;7.63;;;3.00;;
66587;SDS011;53446;50.076;8.198;2022-08-03T08:00:52;7.15;;;2.63;;
66587;SDS011;53446;50.076;8.198;2022-08-03T08:02:52;6.43;;;2.97;;
66587;SDS011;53446;50.076;8.198;2022-08-03T08:04:52;8.37;;;2.40;;
66587;SDS011;53446;50.076;8.198;2022-08-03T08:06:53;8.57;;;3.20;;
66587;SDS011;53446;50.076;8.198;2022-08-03T08:08:53;6.80;;;2.80;;
66587;SDS011;53446;50.076;8.198;2022-08-03T08:10:54;5.95;;;3.00;;
66587;SDS011;53446;50.076;8.198;2022-08-03T08:12:54;7.17;;;2.60;;
66587;SDS011;53446;50.076;8.198;2022-08-03T08:14:55;5.00;;;2.60;;
66587;SDS011;53446;50.076;8.198;2022-08-03T08:16:55;7.13;;;2.90;;
66587;SDS011;53446;50.076;8.198;2022-08-03T08:18:55;6.00;;;2.60;;
66587;SDS011;53446;50.076;8.198;2022-08-03T08:20:56;7.27;;;2.90;;
66587;SDS011;53446;50.076;8.198;2022-08-03T08:22:56;6.90;;;2.90;;
66587;SDS011;53446;50.076;8.198;2022-08-03T08:25:00;9.95;;;3.10;;
66587;SDS011;53446;50.076;8.198;2022-08-03T08:27:01;7.87;;;3.00;;
66587;SDS011;53446;50.076;8.198;2022-08-03T08:29:01;6.53;;;2.80;;
66587;SDS011;53446;50.076;8.198;2022-08-03T08:31:02;10.55;;;2.63;;
66587;SDS011;53446;50.076;8.198;2022-08-03T08:33:03;4.87;;;2.53;;
66587;SDS011;53446;50.076;8.198;2022-08-03T08:35:04;7.63;;;2.67;;
66587;SDS011;53446;50.076;8.198;2022-08-03T08:37:05;5.10;;;2.65;;
66587;SDS011;53446;50.076;8.198;2022-08-03T08:39:05;8.13;;;2.60;;
66587;SDS011;53446;50.076;8.198;2022-08-03T08:41:05;4.70;;;2.43;;
66587;SDS011;53446;50.076;8.198;2022-08-03T08:43:06;5.97;;;2.77;;
66587;SDS011;53446;50.076;8.198;2022-08-03T08:45:06;5.35;;;2.40;;
66587;SDS011;53446;50.076;8.198;2022-08-03T08:47:08;5.33;;;2.33;;
66587;SDS011;53446;50.076;8.198;2022-08-03T08:49:08;7.38;;;3.05;;
66587;SDS011;53446;50.076;8.198;2022-08-03T08:51:10;4.87;;;2.57;;
66587;SDS011;53446;50.076;8.198;2022-08-03T08:53:10;4.97;;;2.60;;
66587;SDS011;53446;50.076;8.198;2022-08-03T08:55:12;7.15;;;2.67;;
66587;SDS011;53446;50.076;8.198;2022-08-03T08:57:13;6.30;;;2.47;;
66587;SDS011;53446;50.076;8.198;2022-08-03T08:59:14;5.82;;;2.30;;
66587;SDS011;53446;50.076;8.198;2022-08-03T09:01:17;5.55;;;2.60;;
66587;SDS011;53446;50.076;8.198;2022-08-03T09:03:17;6.03;;;2.50;;
66587;SDS011;53446;50.076;8.198;2022-08-03T09:05:18;9.38;;;2.80;;
66587;SDS011;53446;50.076;8.198;2022-08-03T09:07:19;5.57;;;2.47;;
66587;SDS011;53446;50.076;8.198;2022-08-03T09:09:19;4.60;;;2.22;;
66587;SDS011;53446;50.076;8.198;2022-08-03T09:11:20;6.55;;;2.70;;
66587;SDS011;53446;50.076;8.198;2022-08-03T09:13:22;6.60;;;2.50;;
66587;SDS011;53446;50.076;8.198;2022-08-03T09:15:26;5.93;;;2.60;;
66587;SDS011;53446;50.076;8.198;2022-08-03T09:17:38;5.25;;;2.60;;
66587;SDS011;53446;50.076;8.198;2022-08-03T09:19:40;5.55;;;2.55;;
66587;SDS011;53446;50.076;8.198;2022-08-03T09:21:41;4.80;;;2.40;;
66587;SDS011;53446;50.076;8.198;2022-08-03T09:23:54;6.50;;;2.60;;
66587;SDS011;53446;50.076;8.198;2022-08-03T09:25:58;5.55;;;2.60;;
66587;SDS011;53446;50.076;8.198;2022-08-03T09:28:08;5.28;;;2.50;;
66587;SDS011;53446;50.076;8.198;2022-08-03T09:30:13;8.23;;;3.03;;
66587;SDS011;53446;50.076;8.198;2022-08-03T09:32:14;6.20;;;2.90;;
66587;SDS011;53446;50.076;8.198;2022-08-03T09:34:18;4.97;;;2.33;;
66587;SDS011;53446;50.076;8.198;2022-08-03T09:36:40;4.80;;;2.47;;
66587;SDS011;53446;50.076;8.198;2022-08-03T09:38:42;5.38;;;2.55;;
66587;SDS011;53446;50.076;8.198;2022-08-03T09:41:00;4.60;;;2.50;;
66587;SDS011;53446;50.076;8.198;2022-08-03T09:43:00;5.17;;;2.10;;
66587;SDS011;53446;50.076;8.198;2022-08-03T09:45:01;5.03;;;2.60;;
66587;SDS011;53446;50.076;8.198;2022-08-03T09:47:01;5.88;;;2.53;;
66587;SDS011;53446;50.076;8.198;2022-08-03T09:49:11;6.90;;;2.63;;
66587;SDS011;53446;50.076;8.198;2022-08-03T09:51:12;6.93;;;2.88;;
66587;SDS011;53446;50.076;8.198;2022-08-03T09:53:14;5.32;;;2.75;;
66587;SDS011;53446;50.076;8.198;2022-08-03T09:55:14;5.57;;;2.60;;
66587;SDS011;53446;50.076;8.198;2022-08-03T09:57:21;4.80;;;2.20;;
66587;SDS011;53446;50.076;8.198;2022-08-03T09:59:24;4.82;;;2.50;;
66587;SDS011;53446;50.076;8.198;2022-08-03T10:01:31;5.90;;;2.45;;
66587;SDS011;53446;50.076;8.198;2022-08-03T10:03:33;5.72;;;2.70;;
66587;SDS011;53446;50.076;8.198;2022-08-03T10:05:35;5.38;;;2.63;;
66587;SDS011;53446;50.076;8.198;2022-08-03T10:07:45;5.15;;;2.50;;
66587;SDS011;53446;50.076;8.198;2022-08-03T10:11:57;6.05;;;2.50;;
66587;SDS011;53446;50.076;8.198;2022-08-03T10:14:07;6.50;;;3.10;;
66587;SDS011;53446;50.076;8.198;2022-08-03T10:16:08;5.18;;;2.95;;
66587;SDS011;53446;50.076;8.198;2022-08-03T10:18:09;5.45;;;2.70;;
66587;SDS011;53446;50.076;8.198;2022-08-03T10:20:10;6.00;;;2.50;;
66587;SDS011;53446;50.076;8.198;2022-08-03T10:22:23;4.95;;;2.60;;
66587;SDS011;53446;50.076;8.198;2022-08-03T10:24:27;5.35;;;2.45;;
66587;SDS011;53446;50.076;8.198;2022-08-03T10:26:30;5.10;;;2.50;;
66587;SDS011;53446;50.076;8.198;2022-08-03T10:28:36;7.18;;;2.70;;
66587;SDS011;53446;50.076;8.198;2022-08-03T10:30:40;6.43;;;2.45;;
66587;SDS011;53446;50.076;8.198;2022-08-03T10:32:47;12.13;;;2.70;;
66587;SDS011;53446;50.076;8.198;2022-08-03T10:34:51;7.35;;;2.90;;
66587;SDS011;53446;50.076;8.198;2022-08-03T10:36:55;4.90;;;2.65;;
66587;SDS011;53446;50.076;8.198;2022-08-03T10:38:57;5.50;;;2.85;;
66587;SDS011;53446;50.076;8.198;2022-08-03T10:40:58;5.60;;;2.77;;
66587;SDS011;53446;50.076;8.198;2022-08-03T10:43:02;8.18;;;3.00;;
66587;SDS011;53446;50.076;8.198;2022-08-03T10:45:18;6.25;;;2.78;;
66587;SDS011;53446;50.076;8.198;2022-08-03T10:47:20;7.93;;;3.00;;
66587;SDS011;53446;50.076;8.198;2022-08-03T10:49:20;7.43;;;3.00;;
66587;SDS011;53446;50.076;8.198;2022-08-03T10:51:21;7.77;;;2.93;;
66587;SDS011;53446;50.076;8.198;2022-08-03T10:53:35;5.68;;;3.00;;
66587;SDS011;53446;50.076;8.198;2022-08-03T10:55:39;6.55;;;2.70;;
66587;SDS011;53446;50.076;8.198;2022-08-03T10:58:00;6.13;;;3.28;;
66587;SDS011;53446;50.076;8.198;2022-08-03T11:00:00;8.93;;;3.37;;
66587;SDS011;53446;50.076;8.198;2022-08-03T11:02:03;5.78;;;2.90;;
66587;SDS011;53446;50.076;8.198;2022-08-03T11:06:14;6.37;;;3.00;;
66587;SDS011;53446;50.076;8.198;2022-08-03T11:10:33;5.00;;;2.95;;
66587;SDS011;53446;50.076;8.198;2022-08-03T11:12:34;8.20;;;3.00;;
66587;SDS011;53446;50.076;8.198;2022-08-03T11:14:44;7.90;;;3.00;;
66587;SDS011;53446;50.076;8.198;2022-08-03T11:16:49;5.30;;;3.40;;
66587;SDS011;53446;50.076;8.198;2022-08-03T11:18:59;6.57;;;3.15;;
66587;SDS011;53446;50.076;8.198;2022-08-03T11:21:00;5.32;;;2.83;;
66587;SDS011;53446;50.076;8.198;2022-08-03T11:23:00;6.18;;;3.17;;
66587;SDS011;53446;50.076;8.198;2022-08-03T11:25:01;9.18;;;3.15;;
66587;SDS011;53446;50.076;8.198;2022-08-03T11:27:22;5.82;;;3.13;;
66587;SDS011;53446;50.076;8.198;2022-08-03T11:29:25;5.65;;;3.17;;
66587;SDS011;53446;50.076;8.198;2022-08-03T11:33:29;8.10;;;2.83;;
66587;SDS011;53446;50.076;8.198;2022-08-03T11:35:31;6.93;;;2.67;;
66587;SDS011;53446;50.076;8.198;2022-08-03T11:37:35;5.60;;;3.20;;
66587;SDS011;53446;50.076;8.198;2022-08-03T11:39:56;7.38;;;2.97;;
66587;SDS011;53446;50.076;8.198;2022-08-03T11:41:56;7.80;;;3.13;;
66587;SDS011;53446;50.076;8.198;2022-08-03T11:43:56;8.90;;;3.60;;
66587;SDS011;53446;50.076;8.198;2022-08-03T11:45:58;5.83;;;2.87;;
66587;SDS011;53446;50.076;8.198;2022-08-03T11:48:14;6.25;;;3.00;;
66587;SDS011;53446;50.076;8.198;2022-08-03T11:50:15;5.35;;;3.25;;
66587;SDS011;53446;50.076;8.198;2022-08-03T11:52:18;5.47;;;3.65;;
66587;SDS011;53446;50.076;8.198;2022-08-03T11:54:18;5.50;;;3.22;;
66587;SDS011;53446;50.076;8.198;2022-08-03T11:56:18;7.10;;;3.37;;
66587;SDS011;53446;50.076;8.198;2022-08-03T11:58:20;5.70;;;3.10;;
66587;SDS011;53446;50.076;8.198;2022-08-03T12:00:22;6.07;;;2.90;;
66587;SDS011;53446;50.076;8.198;2022-08-03T12:02:26;5.90;;;3.20;;
66587;SDS011;53446;50.076;8.198;2022-08-03T12:04:26;5.60;;;2.90;;
66587;SDS011;53446;50.076;8.198;2022-08-03T12:06:27;6.67;;;3.20;;
66587;SDS011;53446;50.076;8.198;2022-08-03T12:08:31;5.27;;;3.00;;
66587;SDS011;53446;50.076;8.198;2022-08-03T12:10:32;6.60;;;3.20;;
66587;SDS011;53446;50.076;8.198;2022-08-03T12:12:33;5.97;;;3.20;;
66587;SDS011;53446;50.076;8.198;2022-08-03T12:14:34;5.40;;;3.70;;
66587;SDS011;53446;50.076;8.198;2022-08-03T12:16:34;7.17;;;3.63;;
66587;SDS011;53446;50.076;8.198;2022-08-03T12:18:34;5.77;;;3.53;;
66587;SDS011;53446;50.076;8.198;2022-08-03T12:20:35;7.07;;;4.05;;
66587;SDS011;53446;50.076;8.198;2022-08-03T12:22:36;5.60;;;3.57;;
66587;SDS011;53446;50.076;8.198;2022-08-03T12:24:41;5.82;;;4.03;;
66587;SDS011;53446;50.076;8.198;2022-08-03T12:26:47;6.10;;;3.30;;
66587;SDS011;53446;50.076;8.198;2022-08-03T12:28:48;6.27;;;3.20;;
66587;SDS011;53446;50.076;8.198;2022-08-03T12:30:50;7.78;;;3.38;;
66587;SDS011;53446;50.076;8.198;2022-08-03T12:32:51;5.13;;;4.07;;